Time;durP1;ratioP1;P1;durP2;ratioP2;P2;SDS_P1;SDS_P2;PMS_P1;PMS_P2;Temp;Humidity;BMP_temperature;BMP_pressure;BME280_temperature;BME280_humidity;BME280_pressure;Samples;Min_cycle;Max_cycle;Signal;HPM_P1;HPM_P2
2023/05/09 00:01:18;;;;;;;13.70;8.70;;;;;;;13.93;100.00;98945.53;4910595;29;20232;-65
2023/05/09 00:03:46;;;;;;;13.67;8.63;;;;;;;13.88;100.00;98947.81;4908373;29;20247;-65
2023/05/09 00:06:14;;;;;;;15.63;8.83;;;;;;;13.83;100.00;98944.88;4911378;29;20225;-65
2023/05/09 00:08:41;;;;;;;10.80;8.33;;;;;;;13.82;100.00;98951.09;4908785;29;20226;-65
2023/05/09 00:11:07;;;;;;;14.97;7.70;;;;;;;13.80;100.00;98945.19;4910699;29;20775;-65
2023/05/09 00:13:36;;;;;;;11.77;8.37;;;;;;;13.79;100.00;98947.00;4908303;29;20568;-65
2023/05/09 00:16:03;;;;;;;12.00;8.13;;;;;;;13.78;100.00;98945.38;4911560;29;20714;-65
2023/05/09 00:18:29;;;;;;;15.13;8.07;;;;;;;13.79;100.00;98939.13;4908800;29;20233;-65
2023/05/09 00:20:56;;;;;;;14.37;8.73;;;;;;;13.78;100.00;98950.63;4911260;29;21045;-65
2023/05/09 00:23:23;;;;;;;11.40;8.23;;;;;;;13.76;100.00;98942.09;4910440;29;20227;-65
2023/05/09 00:25:49;;;;;;;11.50;7.60;;;;;;;13.76;100.00;98939.47;4908763;29;20235;-65
2023/05/09 00:28:16;;;;;;;10.37;7.87;;;;;;;13.75;100.00;98940.44;4911296;29;20251;-65
2023/05/09 00:30:44;;;;;;;16.30;8.18;;;;;;;13.75;100.00;98927.34;4921339;29;20542;-65
2023/05/09 00:33:11;;;;;;;11.50;7.70;;;;;;;13.72;100.00;98925.88;4910832;29;20602;-65
2023/05/09 00:35:38;;;;;;;12.67;7.23;;;;;;;13.71;100.00;98920.78;4906539;29;20716;-65
2023/05/09 00:38:04;;;;;;;11.40;7.70;;;;;;;13.70;100.00;98919.13;4909745;29;20231;-65
2023/05/09 00:40:31;;;;;;;11.73;8.60;;;;;;;13.67;100.00;98917.66;4906617;29;20223;-65
2023/05/09 00:42:58;;;;;;;17.63;8.93;;;;;;;13.68;100.00;98911.44;4908964;29;20240;-65
2023/05/09 00:45:25;;;;;;;11.57;8.10;;;;;;;13.67;100.00;98912.41;4907674;29;20229;-65
2023/05/09 00:47:53;;;;;;;10.37;8.03;;;;;;;13.60;100.00;98903.56;4909479;29;20237;-65
2023/05/09 00:50:20;;;;;;;12.77;8.83;;;;;;;13.58;100.00;98905.53;4911031;29;20235;-65
2023/05/09 00:52:47;;;;;;;11.83;8.67;;;;;;;13.57;100.00;98909.94;4908049;29;20344;-65
2023/05/09 00:55:15;;;;;;;9.97;7.37;;;;;;;13.62;100.00;98919.97;4910759;29;20233;-65
2023/05/09 00:57:41;;;;;;;12.70;7.97;;;;;;;13.61;100.00;98907.84;4922157;29;20220;-65
2023/05/09 01:00:11;;;;;;;9.37;8.17;;;;;;;13.63;100.00;98905.88;4910622;29;20641;-65
2023/05/09 01:02:39;;;;;;;9.23;7.93;;;;;;;13.64;100.00;98910.13;4907394;29;20216;-65
2023/05/09 01:05:07;;;;;;;10.83;7.63;;;;;;;13.70;100.00;98908.63;4924949;29;20287;-65
2023/05/09 01:07:42;;;;;;;15.57;8.23;;;;;;;13.71;100.00;98905.88;4922263;29;20704;-65
2023/05/09 01:10:20;;;;;;;8.63;7.03;;;;;;;13.80;100.00;98904.03;4909087;29;20236;-65
2023/05/09 01:12:54;;;;;;;10.53;7.93;;;;;;;13.81;100.00;98902.22;4905906;29;20250;-65
2023/05/09 01:15:27;;;;;;;11.23;8.57;;;;;;;13.84;100.00;98899.28;4908827;29;20220;-65
2023/05/09 01:17:58;;;;;;;11.03;8.37;;;;;;;13.85;100.00;98901.75;4922305;29;20229;-65
2023/05/09 01:20:32;;;;;;;12.40;8.30;;;;;;;13.90;100.00;98897.81;4923675;29;20272;-65
2023/05/09 01:23:12;;;;;;;11.80;6.87;;;;;;;13.94;100.00;98905.19;4910084;29;20240;-65
2023/05/09 01:25:54;;;;;;;8.83;6.53;;;;;;;13.96;100.00;98897.16;4907353;29;20248;-65
2023/05/09 01:28:36;;;;;;;8.33;7.53;;;;;;;13.96;100.00;98902.41;4924347;29;20235;-65
2023/05/09 01:31:06;;;;;;;8.60;6.50;;;;;;;14.01;100.00;98887.78;4907087;29;20723;-65
2023/05/09 01:33:36;;;;;;;9.00;6.37;;;;;;;14.01;100.00;98882.53;4905951;29;20233;-65
2023/05/09 01:36:08;;;;;;;9.43;6.37;;;;;;;14.02;100.00;98886.00;4909387;29;20239;-65
2023/05/09 01:38:37;;;;;;;8.47;7.20;;;;;;;13.99;100.00;98881.88;4905826;29;20228;-65
2023/05/09 01:41:06;;;;;;;12.40;7.47;;;;;;;13.97;100.00;98877.78;4908608;29;20240;-65
2023/05/09 01:43:34;;;;;;;7.90;7.10;;;;;;;13.95;100.00;98883.19;4906762;29;20741;-65
2023/05/09 01:46:03;;;;;;;10.03;6.90;;;;;;;13.92;100.00;98880.09;4908223;28;20239;-65
2023/05/09 01:48:31;;;;;;;9.97;7.77;;;;;;;13.88;100.00;98887.47;4906370;29;20289;-65
2023/05/09 01:51:00;;;;;;;12.57;6.57;;;;;;;13.87;100.00;98889.28;4923879;29;20235;-66
2023/05/09 01:53:28;;;;;;;10.10;6.73;;;;;;;13.86;100.00;98886.81;4906750;29;20249;-65
2023/05/09 01:55:56;;;;;;;9.43;6.83;;;;;;;13.88;100.00;98882.22;4909538;29;20696;-65
2023/05/09 01:58:25;;;;;;;12.50;7.20;;;;;;;13.89;100.00;98878.59;4907732;29;20220;-65
2023/05/09 02:00:53;;;;;;;9.13;7.00;;;;;;;13.92;100.00;98873.03;4905850;29;20599;-65
2023/05/09 02:03:21;;;;;;;8.43;6.90;;;;;;;13.94;100.00;98870.25;4907735;29;20228;-65
2023/05/09 02:05:50;;;;;;;10.17;6.43;;;;;;;13.99;100.00;98874.00;4905293;29;20284;-65
2023/05/09 02:08:20;;;;;;;8.93;6.83;;;;;;;13.96;100.00;98869.09;4923987;29;20238;-65
2023/05/09 02:10:48;;;;;;;9.27;6.77;;;;;;;14.02;100.00;98875.50;4920845;29;20241;-65
2023/05/09 02:13:15;;;;;;;9.03;6.53;;;;;;;14.01;100.00;98879.91;4908389;29;20239;-65
2023/05/09 02:15:42;;;;;;;9.20;7.10;;;;;;;14.03;100.00;98872.69;4904851;29;20229;-65
2023/05/09 02:18:09;;;;;;;11.37;6.50;;;;;;;14.06;100.00;98870.72;4907960;29;20267;-65
2023/05/09 02:20:36;;;;;;;8.50;6.33;;;;;;;14.06;100.00;98874.16;4904877;29;20311;-65
2023/05/09 02:23:05;;;;;;;6.80;6.10;;;;;;;14.09;100.00;98870.38;4907326;29;20246;-65
2023/05/09 02:25:33;;;;;;;9.07;6.20;;;;;;;14.09;100.00;98867.75;4906075;29;20224;-65
2023/05/09 02:28:00;;;;;;;10.37;6.70;;;;;;;14.09;100.00;98865.97;4923541;29;20238;-65
2023/05/09 02:30:33;;;;;;;8.93;6.40;;;;;;;14.14;100.00;98870.69;4904901;29;20280;-65
2023/05/09 02:33:04;;;;;;;7.80;7.00;;;;;;;14.15;100.00;98869.72;4905955;29;20243;-65
2023/05/09 02:35:31;;;;;;;9.20;6.40;;;;;;;14.16;100.00;98866.94;4920492;29;20311;-65
2023/05/09 02:37:59;;;;;;;10.70;6.23;;;;;;;14.19;100.00;98864.97;4907606;29;20323;-65
2023/05/09 02:40:29;;;;;;;9.23;6.77;;;;;;;14.17;100.00;98873.81;4906322;29;20590;-65
2023/05/09 02:42:56;;;;;;;7.80;6.30;;;;;;;14.20;100.00;98861.34;4908463;29;20243;-65
2023/05/09 02:45:23;;;;;;;6.13;5.47;;;;;;;14.23;100.00;98863.63;4922936;29;20231;-65
2023/05/09 02:47:49;;;;;;;9.10;5.83;;;;;;;14.25;100.00;98862.47;4920293;29;20380;-65
2023/05/09 02:50:16;;;;;;;7.73;6.30;;;;;;;14.22;100.00;98862.00;4907594;29;20225;-65
2023/05/09 02:52:43;;;;;;;11.83;6.57;;;;;;;14.24;100.00;98865.28;4919880;29;20232;-65
2023/05/09 02:55:10;;;;;;;6.90;6.20;;;;;;;14.24;100.00;98858.19;4922805;29;20248;-65
2023/05/09 02:57:41;;;;;;;8.60;6.00;;;;;;;14.25;100.00;98851.16;4920311;29;20721;-65
2023/05/09 03:00:09;;;;;;;13.17;6.47;;;;;;;14.25;100.00;98854.59;4908577;29;20228;-65
2023/05/09 03:02:36;;;;;;;7.67;5.60;;;;;;;14.25;100.00;98851.16;4919902;29;20285;-65
2023/05/09 03:05:03;;;;;;;7.33;6.63;;;;;;;14.28;100.00;98854.25;4906829;29;20227;-65
2023/05/09 03:07:30;;;;;;;12.57;6.53;;;;;;;14.28;100.00;98849.00;4903999;29;20587;-65
2023/05/09 03:09:57;;;;;;;8.37;6.43;;;;;;;14.26;100.00;98843.09;4923010;29;20644;-65
2023/05/09 03:12:25;;;;;;;9.67;6.63;;;;;;;14.26;100.00;98847.53;4906769;29;20228;-65
2023/05/09 03:14:55;;;;;;;7.77;5.87;;;;;;;14.29;100.00;98849.84;4904804;29;20233;-65
2023/05/09 03:17:22;;;;;;;9.20;6.20;;;;;;;14.30;100.00;98848.84;4907385;29;20235;-65
2023/05/09 03:19:49;;;;;;;10.83;6.60;;;;;;;14.31;100.00;98839.94;4920159;29;21055;-65
2023/05/09 03:22:16;;;;;;;12.80;6.23;;;;;;;14.26;100.00;98839.66;4906701;29;20696;-65
2023/05/09 03:25:08;;;;;;;9.43;6.27;;;;;;;14.26;100.00;98835.22;4905834;29;20234;-65
2023/05/09 03:27:35;;;;;;;9.27;6.57;;;;;;;14.27;100.00;98836.06;4904296;29;20220;-65
2023/05/09 03:32:54;;;;;;;13.13;7.20;;;;;;;14.24;100.00;98829.31;5005999;23;20623;-65
2023/05/09 03:35:21;;;;;;;10.83;6.73;;;;;;;14.24;100.00;98836.41;4922700;29;20591;-65
2023/05/09 03:37:48;;;;;;;10.77;7.00;;;;;;;14.21;100.00;98834.91;4920473;29;20315;-65
2023/05/09 03:40:15;;;;;;;9.13;6.57;;;;;;;14.23;100.00;98835.56;4941367;28;20246;-65
2023/05/09 03:42:48;;;;;;;9.23;6.60;;;;;;;14.21;100.00;98826.22;4920917;29;20333;-65
2023/05/09 03:45:15;;;;;;;9.50;7.20;;;;;;;14.18;100.00;98830.00;4919944;29;20228;-65
2023/05/09 03:47:43;;;;;;;13.40;7.40;;;;;;;14.16;100.00;98827.56;4916720;29;20238;-65
2023/05/09 03:50:13;;;;;;;10.50;7.33;;;;;;;14.18;100.00;98827.38;4927129;29;20231;-65
2023/05/09 03:52:41;;;;;;;12.90;7.17;;;;;;;14.17;100.00;98821.31;4921079;29;20231;-65
2023/05/09 03:55:09;;;;;;;10.20;7.63;;;;;;;14.17;100.00;98821.31;4926037;29;20245;-65
2023/05/09 03:57:37;;;;;;;11.60;7.53;;;;;;;14.21;100.00;98818.34;4922522;29;20222;-65
2023/05/09 04:00:05;;;;;;;9.07;6.77;;;;;;;14.22;100.00;98818.16;4931917;29;20235;-65
2023/05/09 04:02:40;;;;;;;8.20;6.40;;;;;;;14.22;100.00;98815.53;4930481;28;20306;-65
2023/05/09 04:05:07;;;;;;;9.50;6.50;;;;;;;14.19;100.00;98815.06;4936089;29;20252;-65
2023/05/09 04:07:35;;;;;;;7.87;6.73;;;;;;;14.20;100.00;98820.16;4920291;29;20219;-65
2023/05/09 04:10:02;;;;;;;11.07;7.50;;;;;;;14.22;100.00;98825.25;4934580;29;20594;-65
2023/05/09 04:12:28;;;;;;;10.23;6.70;;;;;;;14.25;100.00;98819.66;4938587;29;20310;-65
2023/05/09 04:14:55;;;;;;;15.03;8.43;;;;;;;14.31;100.00;98814.53;4915770;29;20291;-65
2023/05/09 04:17:24;;;;;;;15.67;9.47;;;;;;;14.34;100.00;98821.22;4921576;29;20235;-65
2023/05/09 04:19:50;;;;;;;12.70;8.50;;;;;;;14.37;100.00;98826.16;4938433;29;20239;-65
2023/05/09 04:22:17;;;;;;;11.13;8.20;;;;;;;14.40;100.00;98819.75;4921935;29;20239;-65
2023/05/09 04:24:52;;;;;;;9.80;7.83;;;;;;;14.39;100.00;98828.63;4917724;29;20820;-65
2023/05/09 04:27:19;;;;;;;8.80;7.40;;;;;;;14.41;100.00;98830.06;4925763;28;20225;-65
2023/05/09 04:29:50;;;;;;;7.40;6.60;;;;;;;14.41;100.00;98826.63;4919580;29;20238;-65
2023/05/09 04:32:17;;;;;;;12.60;7.87;;;;;;;14.42;100.00;98831.69;4937309;28;20235;-65
2023/05/09 04:35:08;;;;;;;9.53;6.73;;;;;;;14.45;100.00;98827.94;4938553;28;20235;-65
2023/05/09 04:37:40;;;;;;;10.17;7.10;;;;;;;14.46;100.00;98835.63;4917180;29;20228;-65
2023/05/09 04:40:10;;;;;;;10.07;6.80;;;;;;;14.47;100.00;98836.47;4927042;29;20254;-65
2023/05/09 04:42:43;;;;;;;20.13;15.47;;;;;;;14.42;100.00;98838.78;4920203;29;20232;-66
2023/05/09 04:45:11;;;;;;;16.53;13.90;;;;;;;14.40;100.00;98833.69;4938911;28;20245;-65
2023/05/09 04:47:38;;;;;;;10.30;8.53;;;;;;;14.40;100.00;98831.06;4933571;29;20310;-65
2023/05/09 04:50:05;;;;;;;9.67;8.30;;;;;;;14.43;100.00;98824.66;4935537;28;20231;-65
2023/05/09 04:52:32;;;;;;;14.23;8.90;;;;;;;14.43;100.00;98822.84;4917492;29;20237;-65
2023/05/09 04:54:58;;;;;;;9.03;8.13;;;;;;;14.48;100.00;98822.34;4926174;29;20246;-65
2023/05/09 04:57:30;;;;;;;11.63;8.47;;;;;;;14.49;100.00;98818.72;4918853;29;20227;-65
2023/05/09 04:59:58;;;;;;;10.27;8.13;;;;;;;14.52;100.00;98818.38;4914034;29;20672;-65
2023/05/09 05:02:25;;;;;;;12.17;8.47;;;;;;;14.57;100.00;98813.44;4928646;28;20229;-65
2023/05/09 05:04:52;;;;;;;9.67;7.97;;;;;;;14.64;100.00;98816.19;4918355;29;20279;-65
2023/05/09 05:07:20;;;;;;;10.00;8.47;;;;;;;14.69;100.00;98815.66;4931405;28;20251;-65
2023/05/09 05:09:49;;;;;;;10.37;9.20;;;;;;;14.73;100.00;98809.91;4927068;29;20242;-65
2023/05/09 05:12:19;;;;;;;11.33;8.30;;;;;;;14.75;100.00;98812.38;4922806;29;20699;-65
2023/05/09 05:14:51;;;;;;;11.77;9.00;;;;;;;14.78;100.00;98808.59;4936310;29;20234;-65
2023/05/09 05:17:21;;;;;;;11.13;8.20;;;;;;;14.80;100.00;98807.44;4922602;29;20216;-65
2023/05/09 05:19:49;;;;;;;13.83;8.90;;;;;;;14.85;100.00;98806.91;4937826;28;20291;-65
2023/05/09 05:22:16;;;;;;;11.70;8.17;;;;;;;14.87;100.00;98810.97;4928695;29;20235;-65
2023/05/09 05:25:08;;;;;;;12.90;8.83;;;;;;;14.96;100.00;98808.28;4938510;29;20240;-65
2023/05/09 05:27:36;;;;;;;11.57;8.73;;;;;;;15.01;100.00;98805.97;4934227;29;20220;-65
2023/05/09 05:30:05;;;;;;;11.63;8.27;;;;;;;15.14;100.00;98802.75;4919812;29;20633;-65
2023/05/09 05:32:32;;;;;;;12.23;8.70;;;;;;;15.27;100.00;98795.09;4918031;29;20233;-64
2023/05/09 05:35:01;;;;;;;10.93;8.37;;;;;;;15.37;100.00;98800.09;4918011;28;20237;-65
2023/05/09 05:37:28;;;;;;;10.40;8.70;;;;;;;15.52;100.00;98794.06;4901362;29;20229;-65
2023/05/09 05:39:55;;;;;;;9.97;7.53;;;;;;;15.72;100.00;98800.44;4928140;28;20584;-65
2023/05/09 05:42:22;;;;;;;8.70;7.53;;;;;;;15.96;100.00;98787.22;4929361;28;20225;-65
2023/05/09 05:44:49;;;;;;;11.53;8.60;;;;;;;16.19;100.00;98793.22;4935816;28;20232;-65
2023/05/09 05:47:18;;;;;;;10.60;8.70;;;;;;;16.37;100.00;98797.28;4922401;29;20218;-59
2023/05/09 05:49:49;;;;;;;9.83;8.13;;;;;;;16.61;100.00;98797.94;4935442;28;20589;-66
2023/05/09 05:52:16;;;;;;;9.37;7.30;;;;;;;16.74;100.00;98798.09;4921830;29;20309;-65
2023/05/09 05:54:49;;;;;;;8.43;7.53;;;;;;;16.86;100.00;98798.44;4928612;28;20234;-65
2023/05/09 05:57:16;;;;;;;10.40;8.20;;;;;;;16.92;100.00;98797.69;4916906;28;20253;-65
2023/05/09 06:00:09;;;;;;;11.87;8.17;;;;;;;16.85;100.00;98796.78;4937554;28;20248;-65
2023/05/09 06:02:44;;;;;;;13.37;9.33;;;;;;;16.70;100.00;98790.75;4918491;29;20234;-65
2023/05/09 06:05:17;;;;;;;12.50;10.13;;;;;;;16.53;100.00;98783.06;4913932;29;20240;-65
2023/05/09 06:07:44;;;;;;;10.93;9.57;;;;;;;16.51;100.00;98785.88;4913863;29;20294;-65
2023/05/09 06:10:11;;;;;;;12.20;10.07;;;;;;;16.51;100.00;98785.06;4922883;29;20712;-65
2023/05/09 06:12:37;;;;;;;11.77;10.20;;;;;;;16.48;100.00;98777.53;4933219;29;20250;-65
2023/05/09 06:15:05;;;;;;;13.20;10.13;;;;;;;16.44;100.00;98771.81;4919002;28;20245;-65
2023/05/09 06:17:35;;;;;;;12.83;9.20;;;;;;;16.43;100.00;98772.00;4927810;28;20228;-66
2023/05/09 06:20:04;;;;;;;12.23;9.63;;;;;;;16.46;100.00;98771.63;4938588;28;20325;-66
2023/05/09 06:22:31;;;;;;;13.37;10.97;;;;;;;16.47;100.00;98768.81;4928734;29;20706;-66
2023/05/09 06:24:57;;;;;;;13.27;10.70;;;;;;;16.51;100.00;98771.91;4928020;28;20245;-65
2023/05/09 06:27:24;;;;;;;14.03;10.83;;;;;;;16.52;100.00;98779.59;4936282;28;20306;-65
2023/05/09 06:29:51;;;;;;;16.00;11.80;;;;;;;16.56;100.00;98772.16;4932437;28;20232;-65
2023/05/09 06:32:18;;;;;;;16.37;11.90;;;;;;;16.61;100.00;98771.59;4917048;29;20241;-63
2023/05/09 06:34:49;;;;;;;14.90;11.97;;;;;;;16.75;100.00;98773.34;4924701;29;20256;-65
2023/05/09 06:37:17;;;;;;;14.83;12.23;;;;;;;16.61;100.00;98766.31;4933240;28;20237;-64
2023/05/09 06:39:50;;;;;;;16.50;11.97;;;;;;;16.81;100.00;98754.16;4918480;28;20244;-64
2023/05/09 06:42:16;;;;;;;14.80;10.77;;;;;;;17.15;100.00;98745.78;4917667;29;20332;-65
2023/05/09 06:44:50;;;;;;;16.47;11.77;;;;;;;17.15;100.00;98756.31;4937271;28;20355;-65
2023/05/09 06:47:17;;;;;;;14.13;10.63;;;;;;;17.34;100.00;98762.75;4939134;28;20685;-65
2023/05/09 06:49:49;;;;;;;15.40;11.23;;;;;;;17.44;100.00;98759.78;4919397;28;20777;-65
2023/05/09 06:52:17;;;;;;;16.60;10.70;;;;;;;17.53;100.00;98756.81;4933462;29;20230;-66
2023/05/09 06:54:49;;;;;;;16.60;11.70;;;;;;;17.46;100.00;98749.84;4915033;28;20246;-65
2023/05/09 06:57:16;;;;;;;18.07;10.37;;;;;;;17.65;100.00;98751.00;4919819;29;20231;-65
2023/05/09 07:00:09;;;;;;;16.27;11.23;;;;;;;17.62;100.00;98754.00;4917132;29;20262;-65
2023/05/09 07:02:40;;;;;;;14.37;11.70;;;;;;;17.31;100.00;98750.78;4917976;28;20228;-65
2023/05/09 07:05:07;;;;;;;12.77;11.23;;;;;;;17.44;100.00;98742.13;4919512;29;20236;-65
2023/05/09 07:07:37;;;;;;;12.10;10.80;;;;;;;17.40;100.00;98739.06;4924694;28;20227;-65
2023/05/09 07:10:05;;;;;;;15.27;12.63;;;;;;;17.36;100.00;98734.34;4932894;28;20574;-65
2023/05/09 07:12:32;;;;;;;11.90;10.57;;;;;;;17.39;100.00;98728.69;4934812;29;20596;-65
2023/05/09 07:14:58;;;;;;;12.70;11.27;;;;;;;17.36;100.00;98731.72;4937371;29;20242;-65
2023/05/09 07:17:25;;;;;;;12.77;10.83;;;;;;;17.36;100.00;98735.19;4939903;29;20293;-65
2023/05/09 07:19:51;;;;;;;13.73;10.83;;;;;;;17.36;100.00;98721.16;4929029;29;20755;-65
2023/05/09 07:22:18;;;;;;;13.03;10.17;;;;;;;17.36;100.00;98727.25;4923776;29;20234;-65
2023/05/09 07:24:51;;;;;;;14.10;10.60;;;;;;;17.36;100.00;98718.53;4915456;29;20238;-65
2023/05/09 07:27:24;;;;;;;14.33;11.27;;;;;;;17.34;100.00;98709.97;4919225;29;20226;-65
2023/05/09 07:29:51;;;;;;;15.43;10.97;;;;;;;17.51;100.00;98699.94;4934587;28;20721;-65
2023/05/09 07:32:18;;;;;;;14.77;10.37;;;;;;;17.56;100.00;98693.06;4931627;28;20234;-65
2023/05/09 07:34:49;;;;;;;12.00;10.30;;;;;;;17.79;100.00;98691.97;4937513;28;20241;-65
2023/05/09 07:37:16;;;;;;;10.63;9.07;;;;;;;18.18;100.00;98694.16;4936862;29;20288;-65
2023/05/09 07:40:10;;;;;;;11.33;10.17;;;;;;;18.51;100.00;98686.34;4942196;29;20693;-65
2023/05/09 07:42:37;;;;;;;9.90;8.43;;;;;;;18.92;100.00;98695.13;4936662;29;20694;-65
2023/05/09 07:45:04;;;;;;;11.43;9.67;;;;;;;18.88;100.00;98693.88;4923058;29;20701;-65
2023/05/09 07:47:31;;;;;;;12.43;10.20;;;;;;;18.38;100.00;98687.09;4920626;29;20227;-65
2023/05/09 07:49:58;;;;;;;12.40;8.13;;;;;;;18.20;100.00;98685.03;4924503;29;20750;-65
2023/05/09 07:52:24;;;;;;;11.00;9.90;;;;;;;17.83;100.00;98687.09;4923229;29;20339;-65
2023/05/09 07:54:51;;;;;;;11.90;9.07;;;;;;;17.69;100.00;98688.88;4939782;28;20694;-65
2023/05/09 07:57:19;;;;;;;13.93;9.90;;;;;;;17.35;100.00;98683.41;4943563;28;20228;-65
2023/05/09 07:59:50;;;;;;;11.00;9.13;;;;;;;17.31;100.00;98682.19;4937257;29;20257;-65
2023/05/09 08:02:16;;;;;;;11.03;9.87;;;;;;;17.22;100.00;98676.22;4940496;29;20284;-66
2023/05/09 08:04:49;;;;;;;12.23;9.60;;;;;;;17.21;100.00;98666.66;4938514;28;20239;-65
2023/05/09 08:07:16;;;;;;;10.50;8.57;;;;;;;17.28;100.00;98666.72;4934217;28;20285;-65
2023/05/09 08:10:09;;;;;;;9.80;8.83;;;;;;;17.41;100.00;98658.91;4937871;29;20296;-65
2023/05/09 08:12:37;;;;;;;12.57;7.50;;;;;;;17.63;100.00;98652.72;4939826;29;20238;-65
2023/05/09 08:15:05;;;;;;;9.10;8.10;;;;;;;17.77;100.00;98650.94;4937331;28;20253;-65
2023/05/09 08:17:31;;;;;;;11.00;7.90;;;;;;;17.95;100.00;98651.19;4925872;28;20226;-65
2023/05/09 08:19:58;;;;;;;12.70;8.37;;;;;;;18.11;100.00;98652.69;4934233;29;20241;-65
2023/05/09 08:22:24;;;;;;;10.93;7.97;;;;;;;18.20;100.00;98647.22;4939088;29;20246;-65
2023/05/09 08:24:51;;;;;;;10.67;8.20;;;;;;;18.40;100.00;98637.50;4938482;28;20247;-65
2023/05/09 08:27:17;;;;;;;8.70;7.57;;;;;;;18.51;100.00;98643.22;4939192;29;20716;-65
2023/05/09 08:29:51;;;;;;;7.70;6.63;;;;;;;18.78;100.00;98637.94;4938786;29;20289;-65
2023/05/09 08:32:18;;;;;;;9.97;7.03;;;;;;;18.82;100.00;98629.38;4940778;29;20238;-65
2023/05/09 08:34:49;;;;;;;8.27;7.20;;;;;;;18.55;100.00;98631.22;4940927;29;20322;-65
2023/05/09 08:37:16;;;;;;;8.90;7.63;;;;;;;18.69;100.00;98621.44;4941847;29;20234;-65
2023/05/09 08:40:08;;;;;;;9.77;7.70;;;;;;;18.40;100.00;98619.00;4938378;29;20282;-66
2023/05/09 08:42:37;;;;;;;10.87;7.60;;;;;;;18.65;100.00;98622.88;4935497;28;20290;-65
2023/05/09 08:45:09;;;;;;;7.47;6.67;;;;;;;18.41;100.00;98620.63;4941204;28;20294;-65
2023/05/09 08:47:37;;;;;;;9.17;6.67;;;;;;;18.82;100.00;98612.72;4923743;29;20219;-65
2023/05/09 08:50:05;;;;;;;10.07;6.53;;;;;;;19.39;98.23;98613.03;4919554;29;20251;-65
2023/05/09 08:52:33;;;;;;;9.37;7.33;;;;;;;19.90;96.27;98610.59;4919417;29;20640;-65
2023/05/09 08:55:00;;;;;;;10.73;7.13;;;;;;;20.67;87.35;98616.84;4920667;28;20327;-65
2023/05/09 08:57:27;;;;;;;7.87;6.60;;;;;;;20.88;85.67;98613.00;4919434;29;20228;-65
2023/05/09 08:59:55;;;;;;;8.03;6.30;;;;;;;20.71;82.92;98602.91;4923219;28;20711;-65
2023/05/09 09:02:23;;;;;;;6.70;5.50;;;;;;;20.78;83.28;98605.53;4920102;29;20227;-65
2023/05/09 09:04:50;;;;;;;6.70;5.67;;;;;;;20.68;81.52;98599.88;4936506;28;20232;-65
2023/05/09 09:07:17;;;;;;;6.30;5.13;;;;;;;20.59;81.98;98602.00;4927003;29;20226;-65
2023/05/09 09:09:50;;;;;;;7.40;5.03;;;;;;;20.58;82.98;98595.88;4938811;28;20260;-65
2023/05/09 09:12:18;;;;;;;7.53;5.30;;;;;;;20.64;84.83;98595.03;4943045;29;20811;-65
2023/05/09 09:14:53;;;;;;;7.00;5.77;;;;;;;20.47;88.07;98594.72;4936933;29;20236;-65
2023/05/09 09:17:23;;;;;;;7.43;5.10;;;;;;;20.69;83.98;98589.06;4940321;29;20238;-65
2023/05/09 09:19:55;;;;;;;8.57;6.00;;;;;;;20.41;82.77;98581.53;4919865;29;20267;-65
2023/05/09 09:22:22;;;;;;;6.97;5.57;;;;;;;20.12;83.33;98581.97;4908649;29;20233;-66
2023/05/09 09:24:50;;;;;;;5.90;5.23;;;;;;;19.87;84.99;98571.25;4936973;29;20235;-66
2023/05/09 09:27:17;;;;;;;9.27;5.30;;;;;;;19.79;91.08;98568.88;4940048;29;20231;-66
2023/05/09 09:29:49;;;;;;;7.67;6.30;;;;;;;19.76;88.92;98559.53;4937916;29;20224;-66
2023/05/09 09:32:17;;;;;;;9.43;7.33;;;;;;;19.58;90.07;98553.09;4938087;29;20235;-66
2023/05/09 09:34:49;;;;;;;7.50;6.80;;;;;;;19.22;90.88;98554.44;4936079;28;20231;-66
2023/05/09 09:37:23;;;;;;;10.83;7.13;;;;;;;19.09;94.15;98551.84;4912412;29;20827;-66
2023/05/09 09:39:56;;;;;;;7.20;6.50;;;;;;;19.10;97.53;98551.66;4916353;28;20241;-66
2023/05/09 09:42:23;;;;;;;7.57;6.57;;;;;;;19.05;96.46;98551.47;4920976;29;20238;-66
2023/05/09 09:44:55;;;;;;;9.77;6.93;;;;;;;19.20;92.38;98547.75;4928213;29;20234;-66
2023/05/09 09:47:31;;;;;;;9.13;6.47;;;;;;;19.17;91.28;98538.38;4938765;29;20228;-66
2023/05/09 09:49:58;;;;;;;8.13;7.33;;;;;;;19.24;90.46;98531.25;4937761;29;20284;-66
2023/05/09 09:52:26;;;;;;;8.97;7.03;;;;;;;19.50;92.10;98537.44;4936526;29;20238;-66
2023/05/09 09:54:55;;;;;;;7.23;6.53;;;;;;;19.68;87.41;98533.28;4934046;28;20233;-66
2023/05/09 09:57:35;;;;;;;8.10;6.53;;;;;;;20.09;90.47;98526.75;4939311;29;20650;-66
2023/05/09 10:00:04;;;;;;;8.83;6.00;;;;;;;20.44;86.40;98523.59;4915876;29;20231;-66
2023/05/09 10:02:32;;;;;;;7.67;6.87;;;;;;;20.31;82.76;98521.03;4918331;29;20585;-66
2023/05/09 10:05:07;;;;;;;7.63;6.80;;;;;;;20.22;84.10;98517.88;4919820;28;20247;-66
2023/05/09 10:07:35;;;;;;;7.73;6.93;;;;;;;20.18;86.59;98509.53;4918450;29;20577;-66
2023/05/09 10:10:04;;;;;;;8.97;6.30;;;;;;;20.14;89.78;98505.69;4920336;29;20632;-66
2023/05/09 10:12:34;;;;;;;7.60;6.90;;;;;;;19.75;91.10;98503.09;4918228;29;20264;-66
2023/05/09 10:15:03;;;;;;;7.87;6.47;;;;;;;19.54;89.89;98498.94;4917664;29;20247;-66
2023/05/09 10:17:31;;;;;;;8.87;7.30;;;;;;;19.33;92.94;98489.50;4919459;29;20260;-66
2023/05/09 10:20:02;;;;;;;7.53;6.40;;;;;;;19.49;94.83;98485.53;4938910;28;20294;-66
2023/05/09 10:22:30;;;;;;;8.03;7.23;;;;;;;19.23;91.07;98478.53;4938106;29;20231;-66
2023/05/09 10:25:03;;;;;;;8.70;7.00;;;;;;;19.36;90.93;98477.66;4939790;29;21008;-66
2023/05/09 10:27:32;;;;;;;8.00;6.93;;;;;;;19.55;88.20;98475.94;4935865;29;20619;-66
2023/05/09 10:30:03;;;;;;;7.53;6.00;;;;;;;19.86;90.58;98469.00;4939762;28;20227;-66
2023/05/09 10:32:38;;;;;;;6.53;5.87;;;;;;;20.01;89.90;98474.81;4926162;29;20306;-66
2023/05/09 10:35:08;;;;;;;6.30;5.70;;;;;;;20.11;91.23;98468.22;4924251;29;20242;-66
2023/05/09 10:37:35;;;;;;;5.93;5.30;;;;;;;20.19;89.23;98468.75;4938237;29;20235;-66
2023/05/09 10:40:04;;;;;;;6.47;5.50;;;;;;;20.06;85.88;98460.94;4939505;29;20229;-66
2023/05/09 10:42:31;;;;;;;7.93;5.17;;;;;;;19.97;87.19;98465.69;4928182;29;20282;-66
2023/05/09 10:44:58;;;;;;;6.10;5.37;;;;;;;19.86;93.20;98461.88;4918060;29;20244;-66
2023/05/09 10:47:26;;;;;;;6.30;5.50;;;;;;;19.66;90.50;98456.69;4919027;29;20703;-65
2023/05/09 10:49:53;;;;;;;6.63;5.90;;;;;;;19.45;90.23;98453.41;4938372;29;20676;-65
2023/05/09 10:52:21;;;;;;;7.07;6.37;;;;;;;19.11;94.06;98454.56;4936302;29;20248;-65
2023/05/09 10:54:59;;;;;;;6.80;6.10;;;;;;;19.17;93.36;98446.63;4930747;28;20241;-65
2023/05/09 10:57:28;;;;;;;7.40;6.50;;;;;;;19.18;95.12;98437.66;4917915;29;20344;-64
2023/05/09 10:59:56;;;;;;;9.40;6.60;;;;;;;19.04;95.66;98438.75;4919825;29;20232;-65
2023/05/09 11:02:27;;;;;;;8.33;7.27;;;;;;;18.71;99.32;98434.34;4919444;29;20311;-65
2023/05/09 11:05:19;;;;;;;8.87;5.80;;;;;;;18.44;99.05;98429.16;4931763;28;20641;-65
2023/05/09 11:07:46;;;;;;;8.00;6.17;;;;;;;18.24;100.00;98427.38;4917008;29;20245;-65
2023/05/09 11:10:16;;;;;;;7.37;5.87;;;;;;;18.17;100.00;98423.91;4935626;28;20231;-65
2023/05/09 11:12:58;;;;;;;8.33;6.83;;;;;;;18.15;100.00;98431.22;4933346;28;20281;-65
2023/05/09 11:15:26;;;;;;;6.77;6.07;;;;;;;18.21;100.00;98422.50;4936157;28;20285;-65
2023/05/09 11:18:06;;;;;;;9.67;6.37;;;;;;;18.24;100.00;98415.97;4932363;29;20242;-65
2023/05/09 11:20:34;;;;;;;7.17;6.33;;;;;;;18.46;100.00;98416.56;4917544;29;20220;-65
2023/05/09 11:23:04;;;;;;;7.83;6.80;;;;;;;18.74;100.00;98413.59;4939591;28;20267;-65
2023/05/09 11:25:31;;;;;;;6.90;6.20;;;;;;;18.93;100.00;98410.28;4936629;28;20229;-65
2023/05/09 11:28:01;;;;;;;8.90;6.43;;;;;;;19.05;100.00;98397.25;4940046;29;20305;-65
2023/05/09 11:30:40;;;;;;;6.53;5.93;;;;;;;19.34;100.00;98398.50;4936594;28;20317;-65
2023/05/09 11:33:22;;;;;;;7.23;6.50;;;;;;;19.33;96.28;98395.00;4926702;29;20590;-65
2023/05/09 11:36:17;;;;;;;6.40;5.77;;;;;;;19.58;95.56;98391.59;4917320;29;20240;-65